Barnegat Light, New Jersey
Current Conditions -  °F | °C
As of 8:15 PM on Saturday 22 Nov 2014 (Local Time) from KMJX Reporting Station
Overcast Overcast  
Wind Chill: 39°   Ceiling: 9000
Heat Index: 43°   Visibility: 10mi
Dew Point: 21°   Wind: 7mph
Humidity: 42%   Direction: 250°WSW
Pressure: 30.29"   Gusts: NA
Location:  39.76°N, 74.11°W
Report Text: KMJX 230115Z AUTO 25006KT 10SM FEW070 OVC090 06/M06 A3029 RMK AO1
Loading
Personal Weather Stations






























Interactive Weather Map New forecast layout! Learn more

10-Day Weather Forecast

Advertisements
Track Severe Weather on mobile